Flight Track Log - Related Links

Times and Time Zones

All times are in EDT time to prevent confusion due to time zone crossing. See the RPA3243 flight status page for this flight to view local times or setup timezone preferences in your user account.

Time Position Orientation Groundspeed Altitude Reporting Facility
EDT Latitude Longitude Course Direction KTS MPH feet Rate Location/Type
Wed 07:31:00 PM 38.8500 -77.4289 270° West  Level FlightAware Approximate
Wed 07:31:05 PM 38.8000 -77.1000 270° West 247 284 4,400  Level Potomac TRACON
Wed 07:32:00 PM 38.8500 -77.5607 270° West  Level FlightAware Approximate
Wed 07:32:05 PM 38.8000 -77.2000 270° West 241 277 7,400  Level Potomac TRACON
Wed 07:33:00 PM 38.8501 -77.6926 270° West  Level FlightAware Approximate
Wed 07:34:00 PM 38.8501 -77.8244 270° West  Level FlightAware Approximate
Wed 07:34:34 PM 38.8100 -77.4139 274° West 253 291 12,900  Level Washington Center
Wed 07:35:00 PM 38.8501 -77.9563 270° West  Level FlightAware Approximate
Wed 07:35:35 PM 38.8167 -77.5206 275° West 278 320 15,200  Level Washington Center
Wed 07:36:35 PM 38.8231 -77.6300 274° West 296 341 17,000 1,800 Climbing Washington Center
Wed 07:37:35 PM 38.8297 -77.7342 275° West 325 374 18,800 1,983 Climbing Washington Center
Wed 07:38:33 PM 38.8378 -77.8622 275° West 330 380 20,900 1,678 Climbing Washington Center
Wed 07:39:33 PM 38.8419 -77.9744 273° West 335 386 22,100 1,041 Climbing Washington Center
Wed 07:40:34 PM 38.8478 -78.0972 274° West 340 391 23,000 446 Climbing Washington Center
Wed 07:41:34 PM 38.8533 -78.2228 273° West 351 404 23,000 198 Level Washington Center
Wed 07:42:35 PM 38.8528 -78.3478 270° West 356 410 23,400 893 Climbing Washington Center
Wed 07:43:35 PM 38.8517 -78.4786 269° West 356 410 24,800 1,373 Climbing Washington Center
Wed 07:44:33 PM 38.8506 -78.6092 269° West 368 423 26,100 1,271 Climbing Washington Center
Wed 07:45:33 PM 38.8492 -78.7478 269° West 373 429 27,300 934 Climbing Washington Center
Wed 07:46:35 PM 38.8475 -78.8861 269° West 386 444 28,000 344 Climbing Washington Center
Wed 07:47:35 PM 38.8456 -79.0275 269° West 392 451 28,000  Level Washington Center
Wed 07:48:33 PM 38.8433 -79.1711 269° West 402 463 28,000  Level Washington Center
Wed 07:49:34 PM 38.8433 -79.3125 270° West 407 468 28,000  Level Washington Center
Wed 07:50:34 PM 38.8386 -79.4589 268° West 407 468 28,000 99 Level Washington Center
Wed 07:51:35 PM 38.8356 -79.6158 269° West 416 479 28,200 893 Climbing Washington Center
Wed 07:52:35 PM 38.8306 -79.7650 268° West 424 488 29,800 1,424 Climbing Washington Center
Wed 07:53:33 PM 38.8278 -79.9061 269° West 418 481 31,000 650 Climbing Washington Center
Wed 07:55:58 PM 38.8147 -80.2697 267° West 419 482 32,000 290 Climbing Indianapolis Center
Wed 07:57:00 PM 38.8108 -80.4242 268° West 431 496 32,000  Level Indianapolis Center
Wed 07:58:01 PM 38.8069 -80.5769 268° West 429 494 32,000  Level Indianapolis Center
Wed 07:59:03 PM 38.8019 -80.7308 268° West 431 496 32,000  Level Indianapolis Center
Wed 08:00:05 PM 38.7972 -80.8839 268° West 431 496 32,000  Level Indianapolis Center
Wed 08:01:06 PM 38.7919 -81.0372 268° West 431 496 32,000  Level Indianapolis Center
Wed 08:02:08 PM 38.7872 -81.1922 268° West 434 499 32,000  Level Indianapolis Center
Wed 08:03:10 PM 38.7806 -81.3753 267° West 432 497 32,000  Level Indianapolis Center
Wed 08:04:12 PM 38.7747 -81.5167 267° West 434 499 32,000  Level Indianapolis Center
Wed 08:05:13 PM 38.7692 -81.6747 267° West 434 499 32,000  Level Indianapolis Center
Wed 08:06:15 PM 38.7628 -81.8289 267° West 437 503 32,000  Level Indianapolis Center
Wed 08:07:17 PM 38.7564 -81.9817 267° West 434 499 32,000  Level Indianapolis Center
Wed 08:08:18 PM 38.7500 -82.1678 268° West 436 502 32,000  Level Indianapolis Center
Wed 08:09:20 PM 38.7431 -82.3214 267° West 434 499 32,000  Level Indianapolis Center
Wed 08:10:22 PM 38.7361 -82.4761 267° West 436 502 32,000  Level Indianapolis Center
Wed 08:11:24 PM 38.7308 -82.6308 268° West 435 501 32,000  Level Indianapolis Center
Wed 08:12:25 PM 38.7242 -82.7861 267° West 435 501 32,000  Level Indianapolis Center
Wed 08:13:27 PM 38.7178 -82.9414 267° West 436 502 32,000  Level Indianapolis Center
Wed 08:14:29 PM 38.7108 -83.0958 267° West 436 502 32,000  Level Indianapolis Center
Wed 08:15:30 PM 38.7028 -83.2633 267° West 436 502 32,000  Level Indianapolis Center
Wed 08:16:32 PM 38.6956 -83.4189 267° West 435 501 32,000  Level Indianapolis Center
Wed 08:17:34 PM 38.6875 -83.5750 266° West 435 501 32,000  Level Indianapolis Center
Wed 08:18:35 PM 38.6786 -83.7578 266° West 438 504 32,000  Level Indianapolis Center
Wed 08:19:37 PM 38.6794 -83.9153 270° West 439 505 32,000  Level Indianapolis Center
Wed 08:20:39 PM 38.7011 -84.0686 280° West 438 504 32,000  Level Indianapolis Center
Wed 08:21:40 PM 38.7242 -84.2217 281° West 436 502 32,000  Level Indianapolis Center
Wed 08:22:42 PM 38.7472 -84.3753 281° West 434 499 32,000  Level Indianapolis Center
Wed 08:23:43 PM 38.7700 -84.5303 281° West 437 503 32,000  Level Indianapolis Center
Wed 08:24:45 PM 38.7919 -84.6814 281° West 436 502 32,000  Level Indianapolis Center
Wed 08:25:47 PM 38.8150 -84.8328 281° West 435 501 32,000  Level Indianapolis Center
Wed 08:26:48 PM 38.8378 -84.9853 281° West 438 504 32,000  Level Indianapolis Center
Wed 08:27:50 PM 38.8586 -85.1386 280° West 436 502 32,000  Level Indianapolis Center
Wed 08:28:52 PM 38.8839 -85.3211 280° West 434 499 32,000  Level Indianapolis Center
Wed 08:29:53 PM 38.9061 -85.4733 281° West 434 499 32,000  Level Indianapolis Center
Wed 08:30:55 PM 38.9258 -85.6261 279° West 434 499 32,000  Level Indianapolis Center
Wed 08:31:57 PM 38.9469 -85.7803 280° West 437 503 32,000  Level Indianapolis Center
Wed 08:32:58 PM 38.9672 -85.9331 280° West 435 501 32,000  Level Indianapolis Center
Wed 08:34:00 PM 38.9881 -86.0861 280° West 435 501 32,000  Level Indianapolis Center
Wed 08:35:01 PM 39.0086 -86.2403 280° West 436 502 32,000  Level Indianapolis Center
Wed 08:36:03 PM 39.0297 -86.3950 280° West 438 504 32,000  Level Indianapolis Center
Wed 08:37:04 PM 39.0489 -86.5431 280° West 428 493 32,000  Level Indianapolis Center
Wed 08:38:06 PM 39.0700 -86.7172 279° West 414 476 32,000  Level Indianapolis Center
Wed 08:39:07 PM 39.0883 -86.8625 279° West 414 476 32,000 -683 Level Indianapolis Center
Wed 08:40:09 PM 39.1061 -87.0097 279° West 415 478 30,600 -976 Descending Indianapolis Center
Wed 08:41:10 PM 39.1253 -87.1597 279° West 423 487 30,000 -293 Descending Indianapolis Center
Wed 08:42:12 PM 39.1447 -87.3147 279° West 433 498 30,000  Level Indianapolis Center
Wed 08:43:14 PM 39.1631 -87.4706 279° West 438 504 30,000  Level Indianapolis Center
Wed 08:44:15 PM 39.1819 -87.6289 279° West 446 513 30,000  Level Indianapolis Center
Wed 08:45:17 PM 39.2044 -87.8189 279° West 448 516 30,000  Level Indianapolis Center
Wed 08:46:01 PM 39.2139 -87.9192 277° West 451 519 30,000  Level Kansas City Center
Wed 08:47:02 PM 39.2317 -88.0783 278° West 449 517 30,000  Level Kansas City Center
Wed 08:48:04 PM 39.2517 -88.2369 279° West 449 517 30,000  Level Kansas City Center
Wed 08:49:05 PM 39.2725 -88.4289 278° West 449 517 30,000  Level Kansas City Center
Wed 08:50:07 PM 39.2906 -88.5894 278° West 451 519 30,000  Level Kansas City Center
Wed 08:51:09 PM 39.3067 -88.7403 278° West 451 519 30,000  Level Kansas City Center
Wed 08:52:10 PM 39.3242 -88.8989 278° West 450 518 30,000  Level Kansas City Center
Wed 08:53:12 PM 39.3425 -89.0600 278° West 453 521 30,000  Level Kansas City Center
Wed 08:54:14 PM 39.3592 -89.2189 278° West 451 519 30,000  Level Kansas City Center
Wed 08:55:15 PM 39.3792 -89.4131 278° West 455 524 30,000  Level Kansas City Center
Wed 08:56:17 PM 39.3956 -89.5736 278° West 454 522 30,000 -98 Level Kansas City Center
Wed 08:57:18 PM 39.4131 -89.7322 278° West 452 520 29,800 -976 Descending Kansas City Center
Wed 08:58:20 PM 39.4283 -89.8858 277° West 445 512 28,000 -878 Descending Kansas City Center
Wed 08:59:21 PM 39.4417 -90.0367 277° West 433 498 28,000  Level Kansas City Center
Wed 09:00:23 PM 39.4514 -90.1894 275° West 430 495 28,000  Level Kansas City Center
Wed 09:01:25 PM 39.4608 -90.3433 275° West 431 496 28,000  Level Kansas City Center
Wed 09:02:27 PM 39.4728 -90.5286 275° West 433 498 28,000  Level Kansas City Center
Wed 09:03:28 PM 39.4819 -90.6814 274° West 431 496 28,000  Level Kansas City Center
Wed 09:04:30 PM 39.4911 -90.8353 274° West 431 496 28,000  Level Kansas City Center
Wed 09:05:31 PM 39.5003 -90.9894 274° West 432 497 28,000  Level Kansas City Center
Wed 09:06:33 PM 39.5086 -91.1447 274° West 434 499 28,000  Level Kansas City Center
Wed 09:07:34 PM 39.5175 -91.3000 274° West 434 499 28,000  Level Kansas City Center
Wed 09:08:36 PM 39.5250 -91.4664 273° West 433 498 28,000  Level Kansas City Center
Wed 09:09:37 PM 39.5344 -91.6214 275° West 434 499 28,000  Level Kansas City Center
Wed 09:10:39 PM 39.5431 -91.7750 274° West 433 498 28,000  Level Kansas City Center
Wed 09:11:41 PM 39.5519 -91.9639 274° West 436 502 28,000  Level Kansas City Center
Wed 09:12:42 PM 39.5594 -92.1214 274° West 440 506 28,000  Level Kansas City Center
Wed 09:13:44 PM 39.5678 -92.2750 274° West 434 499 28,000 -195 Level Kansas City Center
Wed 09:14:45 PM 39.5736 -92.4289 273° West 430 495 27,600 -683 Descending Kansas City Center
Wed 09:15:47 PM 39.5814 -92.5831 274° West 429 494 26,600 -976 Descending Kansas City Center
Wed 09:16:48 PM 39.5878 -92.7350 273° West 428 493 25,600 -976 Descending Kansas City Center
Wed 09:17:50 PM 39.5933 -92.8869 273° West 426 490 24,600 -1,073 Descending Kansas City Center
Wed 09:18:51 PM 39.6008 -93.0689 273° West 424 488 23,400 -1,463 Descending Kansas City Center
Wed 09:19:53 PM 39.6064 -93.2189 273° West 419 482 21,600 -1,902 Descending Kansas City Center
Wed 09:20:54 PM 39.6136 -93.3633 274° West 409 471 19,500 -2,000 Descending Kansas City Center
Wed 09:21:56 PM 39.6178 -93.5019 272° West 398 458 17,500 -1,935 Descending Kansas City Center
Wed 09:22:58 PM 39.6231 -93.6369 273° West 382 440 15,500 -2,000 Descending Kansas City Center
Wed 09:23:59 PM 39.6269 -93.7828 272° West 371 427 13,400 -1,951 Descending Kansas City Center
Wed 09:25:01 PM 39.6175 -93.9058 264° West 365 420 11,500 -1,707 Descending Kansas City Center
Wed 09:26:02 PM 39.5800 -94.0322 249° West 335 386 9,900 -1,171 Descending Kansas City Center
Wed 09:27:04 PM 39.5728 -94.1344 265° West 299 344 9,100 -1,306 Descending Kansas City Center
Wed 09:28:06 PM 39.5619 -94.2464 263° West 282 325 7,200 -1,024 Descending Kansas City Center
Wed 09:29:07 PM 39.5536 -94.3403 263° West 276 318 7,000 -293 Descending Kansas City Center
Wed 09:30:09 PM 39.5425 -94.4247 260° West 247 284 6,600 -976 Descending Kansas City Center
Wed 09:31:10 PM 39.5219 -94.5186 254° West 242 278 5,000 -780 Descending Kansas City Center
Wed 09:32:12 PM 39.5056 -94.5939 254° West 228 262 5,000 -435 Level Kansas City Center
Wed 09:33:14 PM 39.4656 -94.6622 233° Southwest 217 250 4,100 -871 Descending Kansas City Center

Login

Don't have an account? Register now (free) for customized features, flight alerts, and more!